createdAt,value
2018-03-24T00:01:44.763Z,6.40
2018-03-24T00:04:12.239Z,6.40
2018-03-24T00:06:39.712Z,6.40
2018-03-24T00:09:07.167Z,6.30
2018-03-24T00:11:34.628Z,6.20
2018-03-24T00:14:02.835Z,6.10
2018-03-24T00:16:30.312Z,6.10
2018-03-24T00:18:57.768Z,6.10
2018-03-24T00:21:25.226Z,6.00
2018-03-24T00:23:52.883Z,5.90
2018-03-24T00:26:20.333Z,5.90
2018-03-24T00:28:47.778Z,6.00
2018-03-24T00:31:15.232Z,6.00
2018-03-24T00:33:42.693Z,5.90
2018-03-24T00:36:10.153Z,5.90
2018-03-24T00:38:37.618Z,6.00
2018-03-24T00:41:05.052Z,6.00
2018-03-24T00:43:33.242Z,6.00
2018-03-24T00:46:00.682Z,6.00
2018-03-24T00:48:28.170Z,6.10
2018-03-24T00:50:55.629Z,6.10
2018-03-24T00:53:23.651Z,6.20
2018-03-24T00:55:51.127Z,6.20
2018-03-24T00:58:18.590Z,6.10
2018-03-24T01:00:46.045Z,6.20
2018-03-24T01:03:13.490Z,6.20
2018-03-24T01:05:40.956Z,6.30
2018-03-24T01:08:08.403Z,6.30
2018-03-24T01:10:35.886Z,6.40
2018-03-24T01:13:03.329Z,6.40
2018-03-24T01:15:30.784Z,6.40
2018-03-24T01:17:58.754Z,6.40
2018-03-24T01:20:26.226Z,6.40
2018-03-24T01:22:53.675Z,6.40
2018-03-24T01:25:21.148Z,6.30
2018-03-24T01:27:48.736Z,6.10
2018-03-24T01:30:16.996Z,6.10
2018-03-24T01:32:44.432Z,6.10
2018-03-24T01:35:11.910Z,6.20
2018-03-24T01:37:39.386Z,6.20
2018-03-24T01:40:08.219Z,6.10
2018-03-24T01:42:35.700Z,6.10
2018-03-24T01:45:03.185Z,6.20
2018-03-24T01:47:31.425Z,6.10
2018-03-24T01:49:58.873Z,6.10
2018-03-24T01:52:26.339Z,6.00
2018-03-24T01:54:53.779Z,6.00
2018-03-24T01:57:21.233Z,6.00
2018-03-24T01:59:48.700Z,6.10
2018-03-24T02:02:16.159Z,6.00
2018-03-24T02:04:43.607Z,6.00
2018-03-24T02:07:11.080Z,6.10
2018-03-24T02:09:38.519Z,6.10
2018-03-24T02:12:05.959Z,6.00
2018-03-24T02:14:33.423Z,6.00
2018-03-24T02:17:01.627Z,5.80
2018-03-24T02:19:29.089Z,5.80
2018-03-24T02:21:56.532Z,5.90
2018-03-24T02:24:24.235Z,5.80
2018-03-24T02:26:51.687Z,5.70
2018-03-24T02:29:19.145Z,5.70
2018-03-24T02:31:46.610Z,5.70
2018-03-24T02:34:14.060Z,5.70
2018-03-24T02:36:41.504Z,5.70
2018-03-24T02:39:09.740Z,5.60
2018-03-24T02:41:37.939Z,5.60
2018-03-24T02:44:08.208Z,5.70
2018-03-24T02:46:37.023Z,5.60
2018-03-24T02:49:07.279Z,5.60
2018-03-24T02:51:35.511Z,5.60
2018-03-24T02:54:02.959Z,5.60
2018-03-24T02:56:30.457Z,5.60
2018-03-24T02:58:57.878Z,5.40
2018-03-24T03:01:26.099Z,5.40
2018-03-24T03:03:54.825Z,5.30
2018-03-24T03:06:22.306Z,5.30
2018-03-24T03:08:49.748Z,5.20
2018-03-24T03:11:17.197Z,5.30
2018-03-24T03:13:44.696Z,5.30
2018-03-24T03:16:13.115Z,5.30
2018-03-24T03:18:40.541Z,5.30
2018-03-24T03:21:08.785Z,5.10
2018-03-24T03:23:36.253Z,5.10
2018-03-24T03:26:03.750Z,5.00
2018-03-24T03:28:31.209Z,5.00
2018-03-24T03:31:08.586Z,5.00
2018-03-24T03:33:36.058Z,5.00
2018-03-24T03:36:03.549Z,5.00
2018-03-24T03:38:30.956Z,4.90
2018-03-24T03:40:58.452Z,4.90
2018-03-24T03:43:25.907Z,4.80
2018-03-24T03:45:53.410Z,4.80
2018-03-24T03:48:20.888Z,4.80
2018-03-24T03:50:48.437Z,4.70
2018-03-24T03:53:15.932Z,4.70
2018-03-24T03:55:43.387Z,4.70
2018-03-24T03:58:10.847Z,4.70
2018-03-24T04:00:38.283Z,4.60
2018-03-24T04:03:05.756Z,4.60
2018-03-24T04:05:33.191Z,4.70
2018-03-24T04:08:00.672Z,4.50
2018-03-24T04:10:28.111Z,4.40
2018-03-24T04:12:55.595Z,4.40
2018-03-24T04:15:23.052Z,4.40
2018-03-24T04:17:50.542Z,4.40
2018-03-24T04:20:18.025Z,4.40
2018-03-24T04:22:45.486Z,4.40
2018-03-24T04:25:12.936Z,4.40
2018-03-24T04:27:40.422Z,4.30
2018-03-24T04:30:07.934Z,4.30
2018-03-24T04:32:35.382Z,4.10
2018-03-24T04:35:03.626Z,4.10
2018-03-24T04:37:31.092Z,4.10
2018-03-24T04:39:58.622Z,4.20
2018-03-24T04:42:27.006Z,4.10
2018-03-24T04:44:54.451Z,4.10
2018-03-24T04:47:21.906Z,3.90
2018-03-24T04:49:49.384Z,3.90
2018-03-24T04:52:16.824Z,3.90
2018-03-24T04:54:44.354Z,3.80
2018-03-24T04:57:12.632Z,3.70
2018-03-24T04:59:40.094Z,3.60
2018-03-24T05:02:07.604Z,3.70
2018-03-24T05:04:35.015Z,3.70
2018-03-24T05:07:02.758Z,3.70
2018-03-24T05:09:30.192Z,3.80
2018-03-24T05:12:01.790Z,3.80
2018-03-24T05:14:29.245Z,3.70
2018-03-24T05:16:56.704Z,3.60
2018-03-24T05:19:24.139Z,3.60
2018-03-24T05:21:51.607Z,3.60
2018-03-24T05:24:19.056Z,3.60
2018-03-24T05:26:46.707Z,3.70
2018-03-24T05:29:14.136Z,3.70
2018-03-24T05:31:42.394Z,3.60
2018-03-24T05:34:10.654Z,3.70
2018-03-24T05:36:38.107Z,3.60
2018-03-24T05:39:05.561Z,3.60
2018-03-24T05:41:33.791Z,3.50
2018-03-24T05:44:01.285Z,3.50
2018-03-24T05:46:28.748Z,3.40
2018-03-24T05:48:56.220Z,3.40
2018-03-24T05:51:23.664Z,3.40
2018-03-24T05:53:51.141Z,3.30
2018-03-24T05:56:19.393Z,3.40
2018-03-24T05:58:46.875Z,3.40
2018-03-24T06:01:14.355Z,3.50
2018-03-24T06:03:41.827Z,3.60
2018-03-24T06:06:09.271Z,3.60
2018-03-24T06:08:36.730Z,3.70
2018-03-24T06:11:04.288Z,3.70
2018-03-24T06:13:31.755Z,3.70
2018-03-24T06:15:59.215Z,3.70
2018-03-24T06:18:26.685Z,3.80
2018-03-24T06:20:54.150Z,3.80
2018-03-24T06:23:21.594Z,3.80
2018-03-24T06:25:49.069Z,3.80
2018-03-24T06:28:16.507Z,3.90
2018-03-24T06:30:58.630Z,4.20
2018-03-24T06:33:26.084Z,4.10
2018-03-24T06:35:53.556Z,4.20
2018-03-24T06:38:21.771Z,4.20
2018-03-24T06:40:49.227Z,4.20
2018-03-24T06:43:16.674Z,4.00
2018-03-24T06:45:44.124Z,3.90
2018-03-24T06:48:11.634Z,4.10
2018-03-24T06:50:39.924Z,4.50
2018-03-24T06:53:08.206Z,4.80
2018-03-24T06:55:36.427Z,4.80
2018-03-24T06:58:03.921Z,4.80
2018-03-24T07:00:31.414Z,4.90
2018-03-24T07:02:58.877Z,4.80
2018-03-24T07:05:26.316Z,5.00
2018-03-24T07:07:55.311Z,5.20
2018-03-24T07:10:23.517Z,5.20
2018-03-24T07:12:51.024Z,5.20
2018-03-24T07:15:19.256Z,5.20
2018-03-24T07:17:46.753Z,5.20
2018-03-24T07:20:14.304Z,5.30
2018-03-24T07:22:41.802Z,5.30
2018-03-24T07:25:09.232Z,5.50
2018-03-24T07:27:37.508Z,6.00
2018-03-24T07:30:05.780Z,6.60
2018-03-24T07:32:33.983Z,7.30
2018-03-24T07:35:01.479Z,7.30
2018-03-24T07:37:29.077Z,7.80
2018-03-24T07:39:57.577Z,9.00
2018-03-24T07:42:25.948Z,9.50
2018-03-24T07:44:54.747Z,9.50
2018-03-24T07:47:22.268Z,9.80
2018-03-24T07:49:50.508Z,9.30
2018-03-24T07:52:17.956Z,9.30
2018-03-24T07:54:45.427Z,9.80
2018-03-24T07:57:12.891Z,10.10
2018-03-24T07:59:46.418Z,9.90
2018-03-24T08:02:13.888Z,8.90
2018-03-24T08:04:41.363Z,9.10
2018-03-24T08:07:08.862Z,9.30
2018-03-24T08:09:36.315Z,9.00
2018-03-24T08:12:03.787Z,9.70
2018-03-24T08:14:32.017Z,10.20
2018-03-24T08:16:59.482Z,10.10
2018-03-24T08:19:27.673Z,10.20
2018-03-24T08:21:55.180Z,11.10
2018-03-24T08:24:22.621Z,11.20
2018-03-24T08:26:50.843Z,11.50
2018-03-24T08:29:18.353Z,11.50
2018-03-24T08:31:45.817Z,11.50
2018-03-24T08:34:13.282Z,11.90
2018-03-24T08:36:41.362Z,12.80
2018-03-24T08:39:08.798Z,14.20
2018-03-24T08:41:36.389Z,15.40
2018-03-24T08:44:03.848Z,16.30
2018-03-24T08:46:31.332Z,15.80
2018-03-24T08:48:58.771Z,16.10
2018-03-24T08:51:26.219Z,16.10
2018-03-24T08:53:53.687Z,17.10
2018-03-24T08:56:21.127Z,17.00
2018-03-24T08:58:48.616Z,17.10
2018-03-24T09:01:16.063Z,16.40
2018-03-24T09:03:43.539Z,17.00
2018-03-24T09:06:11.761Z,16.20
2018-03-24T09:08:39.234Z,16.20
2018-03-24T09:11:06.832Z,15.90
2018-03-24T09:13:35.146Z,16.10
2018-03-24T09:16:11.198Z,16.10
2018-03-24T09:18:38.728Z,17.10
2018-03-24T09:21:07.162Z,17.40
2018-03-24T09:23:34.612Z,18.00
2018-03-24T09:26:02.059Z,18.80
2018-03-24T09:28:29.513Z,17.80
2018-03-24T09:30:57.001Z,17.80
2018-03-24T09:33:24.498Z,17.00
2018-03-24T09:35:51.955Z,17.00
2018-03-24T09:38:19.443Z,17.60
2018-03-24T09:40:46.912Z,17.20
2018-03-24T09:43:14.357Z,17.70
2018-03-24T09:45:41.840Z,18.20
2018-03-24T09:48:09.313Z,17.50
2018-03-24T09:50:36.820Z,18.10
2018-03-24T09:53:04.280Z,17.40
2018-03-24T09:55:31.753Z,17.40
2018-03-24T09:57:59.304Z,18.00
2018-03-24T10:00:26.923Z,18.10
2018-03-24T10:02:54.367Z,18.60
2018-03-24T10:05:22.617Z,18.70
2018-03-24T10:07:50.080Z,18.70
2018-03-24T10:10:17.600Z,17.70
2018-03-24T10:12:45.165Z,17.30
2018-03-24T10:15:12.620Z,17.30
2018-03-24T10:17:40.087Z,16.70
2018-03-24T10:20:07.549Z,15.80
2018-03-24T10:22:46.947Z,14.80
2018-03-24T10:25:14.401Z,14.30
2018-03-24T10:27:41.876Z,14.70
2018-03-24T10:30:09.327Z,15.50
2018-03-24T10:32:36.819Z,15.60
2018-03-24T10:35:07.208Z,15.10
2018-03-24T10:37:40.460Z,14.30
2018-03-24T10:40:08.085Z,13.40
2018-03-24T10:42:35.548Z,13.10
2018-03-24T10:45:03.043Z,13.40
2018-03-24T10:47:31.273Z,12.10
2018-03-24T10:49:58.740Z,12.10
2018-03-24T10:52:26.260Z,11.80
2018-03-24T10:54:53.624Z,12.50
2018-03-24T10:57:21.093Z,13.40
2018-03-24T10:59:51.816Z,11.90
2018-03-24T11:02:20.062Z,11.80
2018-03-24T11:04:47.543Z,11.80
2018-03-24T11:07:15.030Z,12.80
2018-03-24T11:09:42.608Z,13.00
2018-03-24T11:12:10.914Z,13.00
2018-03-24T11:14:38.370Z,12.90
2018-03-24T11:17:05.824Z,13.40
2018-03-24T11:19:33.276Z,13.50
2018-03-24T11:22:00.731Z,13.30
2018-03-24T11:24:28.226Z,13.80
2018-03-24T11:26:55.732Z,13.80
2018-03-24T11:29:23.959Z,12.50
2018-03-24T11:31:51.431Z,12.40
2018-03-24T11:34:18.899Z,12.80
2018-03-24T11:36:46.365Z,13.30
2018-03-24T11:39:14.563Z,12.90
2018-03-24T11:41:42.035Z,12.90
2018-03-24T11:44:09.612Z,12.80
2018-03-24T11:46:37.063Z,12.60
2018-03-24T11:49:04.545Z,12.90
2018-03-24T11:51:32.007Z,12.60
2018-03-24T11:54:00.290Z,11.70
2018-03-24T11:56:28.620Z,12.60
2018-03-24T11:58:56.076Z,12.60
2018-03-24T12:01:23.547Z,12.80
2018-03-24T12:03:51.046Z,12.90
2018-03-24T12:06:19.357Z,12.70
2018-03-24T12:08:46.852Z,12.70
2018-03-24T12:11:14.341Z,13.30
2018-03-24T12:13:42.560Z,14.40
2018-03-24T12:16:10.016Z,14.30
2018-03-24T12:18:37.504Z,14.60
2018-03-24T12:21:04.981Z,14.80
2018-03-24T12:23:33.219Z,13.70
2018-03-24T12:26:00.701Z,13.70
2018-03-24T12:28:28.961Z,13.30
2018-03-24T12:30:56.418Z,13.20
2018-03-24T12:33:23.883Z,13.80
2018-03-24T12:35:51.351Z,13.80
2018-03-24T12:38:19.591Z,13.10
2018-03-24T12:40:47.031Z,13.10
2018-03-24T12:43:14.586Z,13.10
2018-03-24T12:45:42.079Z,12.80
2018-03-24T12:48:09.550Z,12.60
2018-03-24T12:50:37.782Z,12.80
2018-03-24T12:53:05.211Z,12.70
2018-03-24T12:55:32.700Z,13.60
2018-03-24T12:58:00.157Z,14.50
2018-03-24T13:00:27.685Z,13.70
2018-03-24T13:02:55.063Z,13.30
2018-03-24T13:05:23.259Z,14.00
2018-03-24T13:07:50.695Z,15.20
2018-03-24T13:10:18.165Z,16.00
2018-03-24T13:12:46.467Z,16.50
2018-03-24T13:15:14.679Z,17.10
2018-03-24T13:17:42.143Z,17.10
2018-03-24T13:20:09.596Z,17.20
2018-03-24T13:22:37.044Z,16.90
2018-03-24T13:25:04.529Z,17.10
2018-03-24T13:27:32.798Z,17.50
2018-03-24T13:30:00.229Z,17.50
2018-03-24T13:32:27.701Z,17.00
2018-03-24T13:34:55.179Z,16.90
2018-03-24T13:37:22.639Z,17.00
2018-03-24T13:39:50.091Z,16.50
2018-03-24T13:42:17.541Z,16.20
2018-03-24T13:44:45.101Z,16.40
2018-03-24T13:47:12.568Z,16.60
2018-03-24T13:49:40.025Z,16.80
2018-03-24T13:52:07.505Z,17.40
2018-03-24T13:54:35.718Z,17.70
2018-03-24T13:57:03.956Z,17.50
2018-03-24T13:59:32.169Z,16.10
2018-03-24T14:01:59.632Z,16.10
2018-03-24T14:04:27.853Z,15.10
2018-03-24T14:06:56.076Z,15.20
2018-03-24T14:09:23.544Z,15.20
2018-03-24T14:11:51.020Z,15.40
2018-03-24T14:14:18.474Z,15.80
2018-03-24T14:16:46.013Z,15.60
2018-03-24T14:19:13.391Z,15.60
2018-03-24T14:21:40.824Z,15.60
2018-03-24T14:24:08.297Z,15.40
2018-03-24T14:26:35.732Z,15.00
2018-03-24T14:29:03.190Z,15.00
2018-03-24T14:31:34.083Z,15.80
2018-03-24T14:34:01.645Z,16.00
2018-03-24T14:36:29.371Z,15.80
2018-03-24T14:38:56.791Z,15.40
2018-03-24T14:41:24.257Z,15.40
2018-03-24T14:43:51.712Z,15.60
2018-03-24T14:46:39.635Z,15.50
2018-03-24T14:49:07.089Z,15.20
2018-03-24T14:51:34.620Z,14.80
2018-03-24T14:54:02.149Z,15.00
2018-03-24T14:56:29.616Z,14.80
2018-03-24T14:58:57.086Z,14.80
2018-03-24T15:01:24.585Z,14.60
2018-03-24T15:03:52.045Z,14.60
2018-03-24T15:06:19.480Z,14.30
2018-03-24T15:08:46.945Z,13.70
2018-03-24T15:11:14.395Z,13.30
2018-03-24T15:13:41.834Z,13.40
2018-03-24T15:16:09.311Z,13.60
2018-03-24T15:18:36.760Z,13.30
2018-03-24T15:21:04.204Z,13.30
2018-03-24T15:23:31.726Z,13.90
2018-03-24T15:25:59.237Z,13.50
2018-03-24T15:28:26.680Z,13.70
2018-03-24T15:31:05.994Z,13.70
2018-03-24T15:33:46.277Z,14.10
2018-03-24T15:36:25.619Z,14.10
2018-03-24T15:38:53.100Z,13.60
2018-03-24T15:41:20.559Z,13.20
2018-03-24T15:43:48.030Z,13.10
2018-03-24T15:46:15.471Z,13.00
2018-03-24T15:48:42.936Z,12.90
2018-03-24T15:51:10.397Z,12.80
2018-03-24T15:53:37.839Z,12.90
2018-03-24T15:56:05.325Z,12.90
2018-03-24T15:58:32.792Z,12.70
2018-03-24T16:01:00.240Z,12.60
2018-03-24T16:03:27.709Z,12.30
2018-03-24T16:05:55.173Z,12.30
2018-03-24T16:08:22.654Z,12.40
2018-03-24T16:10:50.112Z,12.50
2018-03-24T16:13:17.610Z,12.40
2018-03-24T16:15:45.063Z,12.30
2018-03-24T16:18:13.183Z,12.20
2018-03-24T16:20:40.656Z,12.20
2018-03-24T16:23:08.130Z,12.20
2018-03-24T16:25:35.609Z,12.10
2018-03-24T16:28:03.825Z,11.80
2018-03-24T16:30:31.295Z,11.80
2018-03-24T16:32:58.745Z,11.70
2018-03-24T16:35:26.534Z,11.70
2018-03-24T16:37:54.021Z,11.60
2018-03-24T16:40:22.244Z,11.50
2018-03-24T16:42:49.699Z,11.50
2018-03-24T16:45:17.175Z,11.30
2018-03-24T16:47:44.640Z,11.30
2018-03-24T16:50:12.122Z,11.30
2018-03-24T16:52:40.358Z,11.20
2018-03-24T16:55:07.821Z,11.20
2018-03-24T16:57:36.048Z,11.10
2018-03-24T17:00:03.571Z,11.10
2018-03-24T17:02:31.016Z,11.00
2018-03-24T17:04:58.965Z,11.10
2018-03-24T17:07:26.433Z,11.20
2018-03-24T17:09:53.908Z,11.10
2018-03-24T17:12:21.366Z,10.80
2018-03-24T17:14:49.621Z,10.60
2018-03-24T17:17:17.298Z,10.60
2018-03-24T17:19:45.512Z,10.60
2018-03-24T17:22:13.040Z,10.60
2018-03-24T17:24:41.285Z,10.50
2018-03-24T17:27:08.783Z,10.50
2018-03-24T17:29:36.256Z,10.50
2018-03-24T17:32:03.769Z,10.40
2018-03-24T17:34:31.248Z,10.40
2018-03-24T17:36:58.716Z,10.30
2018-03-24T17:39:26.202Z,10.20
2018-03-24T17:41:53.749Z,10.10
2018-03-24T17:44:21.271Z,10.10
2018-03-24T17:46:48.689Z,10.10
2018-03-24T17:49:16.169Z,10.20
2018-03-24T17:51:44.383Z,10.10
2018-03-24T17:54:11.889Z,10.10
2018-03-24T17:56:39.398Z,10.10
2018-03-24T17:59:06.814Z,10.10
2018-03-24T18:01:35.028Z,9.90
2018-03-24T18:04:02.513Z,9.90
2018-03-24T18:06:29.957Z,9.80
2018-03-24T18:08:57.440Z,9.80
2018-03-24T18:11:25.004Z,9.80
2018-03-24T18:13:52.458Z,9.80
2018-03-24T18:16:19.930Z,9.60
2018-03-24T18:18:47.386Z,9.50
2018-03-24T18:21:14.886Z,9.50
2018-03-24T18:23:42.340Z,9.50
2018-03-24T18:26:09.810Z,9.50
2018-03-24T18:28:37.280Z,9.50
2018-03-24T18:31:04.824Z,9.50
2018-03-24T18:33:32.280Z,9.30
2018-03-24T18:35:59.773Z,9.30
2018-03-24T18:38:27.246Z,9.30
2018-03-24T18:40:55.475Z,9.40
2018-03-24T18:43:22.928Z,9.30
2018-03-24T18:45:50.388Z,9.40
2018-03-24T18:48:17.863Z,9.40
2018-03-24T18:50:45.332Z,9.40
2018-03-24T18:53:13.572Z,9.30
2018-03-24T18:55:41.027Z,9.30
2018-03-24T18:58:08.492Z,9.30
2018-03-24T19:00:35.934Z,9.10
2018-03-24T19:03:03.400Z,9.20
2018-03-24T19:05:30.861Z,9.20
2018-03-24T19:07:58.332Z,9.10
2018-03-24T19:10:25.846Z,9.10
2018-03-24T19:12:53.328Z,9.00
2018-03-24T19:15:20.816Z,8.90
2018-03-24T19:17:49.135Z,8.90
2018-03-24T19:20:16.606Z,8.90
2018-03-24T19:22:44.069Z,8.80
2018-03-24T19:25:11.566Z,8.80
2018-03-24T19:27:39.858Z,8.80
2018-03-24T19:30:08.085Z,8.70
2018-03-24T19:32:35.570Z,8.70
2018-03-24T19:35:03.031Z,8.60
2018-03-24T19:37:31.269Z,8.50
2018-03-24T19:39:58.711Z,8.50
2018-03-24T19:42:26.171Z,8.50
2018-03-24T19:44:54.445Z,8.50
2018-03-24T19:47:21.890Z,8.50
2018-03-24T19:49:49.366Z,8.60
2018-03-24T19:52:16.829Z,8.60
2018-03-24T19:54:44.319Z,8.70
2018-03-24T19:57:12.569Z,8.60
2018-03-24T19:59:40.012Z,8.60
2018-03-24T20:02:07.495Z,8.70
2018-03-24T20:04:35.742Z,8.50
2018-03-24T20:07:03.308Z,8.50
2018-03-24T20:09:30.752Z,8.40
2018-03-24T20:11:58.209Z,8.40
2018-03-24T20:14:25.730Z,8.30
2018-03-24T20:16:53.223Z,8.40
2018-03-24T20:19:20.673Z,8.40
2018-03-24T20:21:48.206Z,8.40
2018-03-24T20:24:15.648Z,8.40
2018-03-24T20:26:43.116Z,8.40
2018-03-24T20:29:10.738Z,8.30
2018-03-24T20:31:38.201Z,8.10
2018-03-24T20:34:06.408Z,8.10
2018-03-24T20:36:33.868Z,8.00
2018-03-24T20:39:01.332Z,8.00
2018-03-24T20:41:28.787Z,7.90
2018-03-24T20:43:56.251Z,8.10
2018-03-24T20:46:23.693Z,8.00
2018-03-24T20:48:51.172Z,8.10
2018-03-24T20:51:18.610Z,8.00
2018-03-24T20:53:46.088Z,8.00
2018-03-24T20:56:13.598Z,8.00
2018-03-24T20:58:41.053Z,8.00
2018-03-24T21:01:08.492Z,7.90
2018-03-24T21:03:36.743Z,7.90
2018-03-24T21:06:04.168Z,7.90
2018-03-24T21:08:31.627Z,7.90
2018-03-24T21:10:59.092Z,7.90
2018-03-24T21:13:26.560Z,7.90
2018-03-24T21:15:54.040Z,7.90
2018-03-24T21:18:21.539Z,7.70
2018-03-24T21:20:48.953Z,7.70
2018-03-24T21:23:17.192Z,7.70
2018-03-24T21:25:44.744Z,7.60
2018-03-24T21:28:12.256Z,7.60
2018-03-24T21:30:40.498Z,7.40
2018-03-24T21:33:07.956Z,7.30
2018-03-24T21:35:35.403Z,7.30
2018-03-24T21:38:02.850Z,7.30
2018-03-24T21:40:30.324Z,7.20
2018-03-24T21:42:57.821Z,7.10
2018-03-24T21:45:26.065Z,7.10
2018-03-24T21:47:53.528Z,7.10
2018-03-24T21:50:21.609Z,7.10
2018-03-24T21:52:49.832Z,7.10
2018-03-24T21:55:17.313Z,7.10
2018-03-24T21:57:44.775Z,7.10
2018-03-24T22:00:12.231Z,7.10
2018-03-24T22:02:39.692Z,7.10
2018-03-24T22:05:07.159Z,7.10
2018-03-24T22:07:35.376Z,6.90
2018-03-24T22:10:02.831Z,6.90
2018-03-24T22:12:30.868Z,6.90
2018-03-24T22:14:59.094Z,6.80
2018-03-24T22:17:26.589Z,6.80
2018-03-24T22:19:54.017Z,6.90
2018-03-24T22:22:21.607Z,6.90
2018-03-24T22:24:49.032Z,6.90
2018-03-24T22:27:16.500Z,6.80
2018-03-24T22:29:43.950Z,6.80
2018-03-24T22:32:11.444Z,6.70
2018-03-24T22:34:38.934Z,6.50
2018-03-24T22:37:07.153Z,6.30
2018-03-24T22:39:34.665Z,6.30
2018-03-24T22:42:02.120Z,6.30
2018-03-24T22:44:29.568Z,6.30
2018-03-24T22:46:57.729Z,6.20
2018-03-24T22:49:25.184Z,6.20
2018-03-24T22:51:52.622Z,6.30
2018-03-24T22:54:20.861Z,6.20
2018-03-24T22:56:48.316Z,6.20
2018-03-24T22:59:16.352Z,6.20
2018-03-24T23:01:44.135Z,6.20
2018-03-24T23:04:11.640Z,6.10
2018-03-24T23:06:39.872Z,6.00
2018-03-24T23:09:08.155Z,6.00
2018-03-24T23:11:35.596Z,6.00
2018-03-24T23:14:03.162Z,6.00
2018-03-24T23:16:30.617Z,5.90
2018-03-24T23:18:58.068Z,5.90
2018-03-24T23:21:25.511Z,5.90
2018-03-24T23:23:52.964Z,5.90
2018-03-24T23:26:20.436Z,5.80
2018-03-24T23:28:47.912Z,5.80
2018-03-24T23:31:15.382Z,5.70
2018-03-24T23:33:42.840Z,5.70
2018-03-24T23:36:10.336Z,5.60
2018-03-24T23:38:37.768Z,5.70
2018-03-24T23:41:06.019Z,5.60
2018-03-24T23:43:33.477Z,5.60
2018-03-24T23:46:01.062Z,5.60
2018-03-24T23:48:28.499Z,5.50
2018-03-24T23:50:57.353Z,5.50
2018-03-24T23:53:24.806Z,5.50
2018-03-24T23:55:52.265Z,5.50
2018-03-24T23:58:19.737Z,5.50
